Strona główna
METAR-TAF:

METAR-TAF

Lotnisko :

Portland International Jetport

Portland, Maine, Stany Zjednoczone

Szerokość geograficzna: 43-38-32N, Długość geograficzna: 070-18-16W, wysokość: 22 m

Aktualna obserwacja pogody

Raport powstał 20 minut temu, godzina 10:51 UTC
Wiatr 3 kt od północ
Temperatura 16°C
Wilgotność 94%
Ciśnienie 1016 hPa
Widzialność: 16.1 km
Rozproszone chmury na wysokości 25000 ft

METAR: KPWM 191051Z 36003KT 10SM SCT250 16/15 A3001 RMK AO2 SLP163 T01610150 $

czas: 07:11 (11:11 UTC)

Prognoza

Raport powstał 2 godziny i 40 minut temu, godzina 08:31 UTC
Prognoza ważna od 19 godzina 09 UTC do 20 godzina 06 UTC
Wiatr 5 kt od północ
Widzialność: 10 km
Rozproszone chmury na wysokości 20000 ft
Od 19 godzina 1400 UTC
Wiatr 10 kt od wschodnio-północny wschód
Widzialność: 10 km
Rozproszone chmury na wysokości 25000 ft

TAF: KPWM 190831Z 1909/2006 01005KT P6SM SCT200 FM191400 06010KT P6SM SCT250

Obserwacja i prognoza pogody dla ponad 4000 lotnisk (raport METAR i TAF).

Dostępne stacje oznaczono żółtymi i czerwonymi punktami na mapie.

Najedź kursorem aby zobaczyć nazwę stacji.

Kliknij aby zobaczyć obserwacje i prognozy pogody.

Aby zmienić mapę: kliknij na zielony przycisk z czarnym krzyżykiem, aby powiększyć; na zielony przycisk z myślnikiem, aby pomniejszyć; na zielone strzałki, aby przejść do map sąsiednich.


METAR-TAF: